createdAt,value
2023-11-30T00:01:15.152Z,97938.84
2023-11-30T00:05:17.376Z,97936.81
2023-11-30T00:09:19.851Z,97931.84
2023-11-30T00:13:22.735Z,97933.72
2023-11-30T00:17:24.292Z,97942.16
2023-11-30T00:21:25.868Z,97946.72
2023-11-30T00:25:27.410Z,97948.78
2023-11-30T00:29:30.279Z,97945.47
2023-11-30T00:33:31.805Z,97943.00
2023-11-30T00:37:33.352Z,97938.06
2023-11-30T00:41:35.394Z,97938.47
2023-11-30T00:45:38.256Z,97937.00
2023-11-30T00:49:39.790Z,97939.31
2023-11-30T00:53:41.312Z,97941.34
2023-11-30T00:57:42.837Z,97936.41
2023-11-30T01:01:45.754Z,97936.41
2023-11-30T01:05:47.435Z,97940.72
2023-11-30T01:09:49.167Z,97947.16
2023-11-30T01:13:50.632Z,97951.25
2023-11-30T01:17:53.598Z,97964.91
2023-11-30T01:21:55.389Z,97957.44
2023-11-30T01:25:56.881Z,97954.78
2023-11-30T01:29:58.415Z,97949.63
2023-11-30T01:34:01.280Z,97959.53
2023-11-30T01:38:02.808Z,97974.81
2023-11-30T01:42:05.973Z,97967.38
2023-11-30T01:46:07.786Z,97963.66
2023-11-30T01:50:10.876Z,97975.03
2023-11-30T01:54:13.630Z,97975.63
2023-11-30T01:58:15.490Z,97962.41
2023-11-30T02:02:19.967Z,97958.47
2023-11-30T02:06:23.245Z,97957.44
2023-11-30T02:10:24.837Z,97958.09
2023-11-30T02:14:26.331Z,97950.44
2023-11-30T02:18:27.863Z,97950.22
2023-11-30T02:22:30.683Z,97945.06
2023-11-30T02:26:32.177Z,97953.72
2023-11-30T02:30:33.690Z,97945.06
2023-11-30T02:34:35.435Z,97947.31
2023-11-30T02:38:38.252Z,97950.44
2023-11-30T02:42:39.774Z,97943.59
2023-11-30T02:46:41.272Z,97932.63
2023-11-30T02:50:42.769Z,97943.81
2023-11-30T02:54:45.622Z,97946.28
2023-11-30T02:58:47.135Z,97949.19
2023-11-30T03:02:48.705Z,97944.25
2023-11-30T03:06:50.305Z,97952.06
2023-11-30T03:10:54.012Z,97950.66
2023-11-30T03:14:55.627Z,97935.16
2023-11-30T03:19:09.904Z,97935.56
2023-11-30T03:23:17.536Z,97936.41
2023-11-30T03:27:20.593Z,97933.09
2023-11-30T03:31:22.083Z,97934.53
2023-11-30T03:35:23.606Z,97935.16
2023-11-30T03:39:25.219Z,97932.28
2023-11-30T03:43:28.099Z,97940.94
2023-11-30T03:47:29.629Z,97946.75
2023-11-30T03:51:31.164Z,97936.81
2023-11-30T03:55:32.670Z,97943.03
2023-11-30T03:59:35.493Z,97937.84
2023-11-30T04:03:37.097Z,97930.63
2023-11-30T04:07:38.594Z,97931.88
2023-11-30T04:11:40.088Z,97920.09
2023-11-30T04:15:43.080Z,97921.97
2023-11-30T04:19:44.570Z,97918.25
2023-11-30T04:23:46.065Z,97920.50
2023-11-30T04:27:47.571Z,97916.38
2023-11-30T04:31:50.496Z,97912.44
2023-11-30T04:35:51.989Z,97914.94
2023-11-30T04:39:53.589Z,97925.47
2023-11-30T04:43:55.110Z,97923.19
2023-11-30T04:47:57.996Z,97918.25
2023-11-30T04:51:59.551Z,97923.19
2023-11-30T04:56:01.081Z,97926.09
2023-11-30T05:00:03.216Z,97919.69
2023-11-30T05:04:06.366Z,97915.75
2023-11-30T05:08:08.033Z,97916.56
2023-11-30T05:12:09.668Z,97913.63
2023-11-30T05:16:11.252Z,97916.47
2023-11-30T05:20:14.237Z,97930.88
2023-11-30T05:24:17.046Z,97931.63
2023-11-30T05:28:18.576Z,97925.34
2023-11-30T05:32:20.088Z,97926.13
2023-11-30T05:36:23.187Z,97910.94
2023-11-30T05:40:24.745Z,97912.94
2023-11-30T05:44:26.243Z,97906.72
2023-11-30T05:48:27.815Z,97914.56
2023-11-30T05:52:30.682Z,97904.94
2023-11-30T05:56:32.311Z,97910.75
2023-11-30T06:00:33.836Z,97906.69
2023-11-30T06:04:35.502Z,97916.97
2023-11-30T06:08:38.404Z,97922.91
2023-11-30T06:12:40.212Z,97915.97
2023-11-30T06:16:41.739Z,97921.44
2023-11-30T06:20:43.289Z,97919.81
2023-11-30T06:24:46.138Z,97919.25
2023-11-30T06:28:47.635Z,97919.69
2023-11-30T06:32:49.153Z,97923.81
2023-11-30T06:36:50.692Z,97928.72
2023-11-30T06:40:53.531Z,97925.84
2023-11-30T06:44:55.059Z,97922.78
2023-11-30T06:48:56.660Z,97925.44
2023-11-30T06:52:58.196Z,97916.78
2023-11-30T06:57:01.414Z,97919.69
2023-11-30T07:01:05.651Z,97931.84
2023-11-30T07:05:08.360Z,97927.00
2023-11-30T07:09:09.919Z,97927.31
2023-11-30T07:13:13.019Z,97940.22
2023-11-30T07:17:14.570Z,97929.75
2023-11-30T07:21:16.246Z,97933.50
2023-11-30T07:25:19.092Z,97938.91
2023-11-30T07:29:24.044Z,97936.47
2023-11-30T07:33:28.038Z,97935.69
2023-11-30T07:37:29.567Z,97940.59
2023-11-30T07:41:31.066Z,97955.41
2023-11-30T07:45:34.045Z,97958.63
2023-11-30T07:49:35.576Z,97964.00
2023-11-30T07:53:37.064Z,97959.50
2023-11-30T07:57:38.590Z,97954.22
2023-11-30T08:01:41.475Z,97960.22
2023-11-30T08:05:43.003Z,97953.47
2023-11-30T08:09:44.487Z,97960.53
2023-11-30T08:13:45.998Z,97964.72
2023-11-30T08:17:48.971Z,97960.63
2023-11-30T08:21:50.506Z,97961.69
2023-11-30T08:25:52.085Z,97956.34
2023-11-30T08:29:53.587Z,97953.47
2023-11-30T08:33:56.513Z,97943.97
2023-11-30T08:37:58.396Z,97945.03
2023-11-30T08:41:59.891Z,97939.06
2023-11-30T08:46:01.504Z,97938.84
2023-11-30T08:50:05.102Z,97934.75
2023-11-30T08:54:06.621Z,97932.91
2023-11-30T08:58:08.220Z,97931.88
2023-11-30T09:02:09.848Z,97938.06
2023-11-30T09:06:12.825Z,97947.13
2023-11-30T09:10:14.572Z,97938.88
2023-11-30T09:14:16.072Z,97936.84
2023-11-30T09:18:18.237Z,97940.53
2023-11-30T09:22:21.135Z,97930.81
2023-11-30T09:26:22.845Z,97934.31
2023-11-30T09:30:24.594Z,97932.66
2023-11-30T09:34:26.675Z,97939.69
2023-11-30T09:38:29.499Z,97933.50
2023-11-30T09:42:31.168Z,97928.06
2023-11-30T09:46:32.924Z,97921.69
2023-11-30T09:50:34.521Z,97917.56
2023-11-30T09:54:37.990Z,97912.81
2023-11-30T09:58:39.504Z,97926.44
2023-11-30T10:02:51.017Z,97921.88
2023-11-30T10:06:55.390Z,97917.31
2023-11-30T10:10:58.221Z,97900.44
2023-11-30T10:15:00.580Z,97904.75
2023-11-30T10:19:04.267Z,97905.72
2023-11-30T10:23:09.871Z,97896.97
2023-11-30T10:27:15.377Z,97896.16
2023-11-30T10:31:18.273Z,97896.06
2023-11-30T10:35:20.991Z,97894.19
2023-11-30T10:39:24.972Z,97893.34
2023-11-30T10:43:31.933Z,97886.69
2023-11-30T10:47:38.778Z,97888.34
2023-11-30T10:51:40.589Z,97876.34
2023-11-30T10:55:43.010Z,97875.06
2023-11-30T10:59:46.293Z,97873.78
2023-11-30T11:03:48.600Z,97868.22
2023-11-30T11:07:51.644Z,97864.66
2023-11-30T11:12:00.303Z,97852.69
2023-11-30T11:16:03.514Z,97862.16
2023-11-30T11:20:07.785Z,97846.66
2023-11-30T11:24:09.446Z,97838.19
2023-11-30T11:28:11.023Z,97835.59
2023-11-30T11:32:14.653Z,97832.63
2023-11-30T11:36:16.211Z,97836.34
2023-11-30T11:40:17.700Z,97840.59
2023-11-30T11:44:20.262Z,97832.97
2023-11-30T11:48:24.323Z,97832.22
2023-11-30T11:52:26.095Z,97820.19
2023-11-30T11:56:27.629Z,97814.88
2023-11-30T12:00:29.316Z,97808.16
2023-11-30T12:04:33.874Z,97811.19
2023-11-30T12:08:35.387Z,97813.25
2023-11-30T12:12:36.908Z,97806.88
2023-11-30T12:16:38.515Z,97801.25
2023-11-30T12:20:41.626Z,97815.44
2023-11-30T12:24:43.214Z,97809.44
2023-11-30T12:28:44.726Z,97800.59
2023-11-30T12:32:46.787Z,97803.19
2023-11-30T12:36:51.082Z,97804.97
2023-11-30T12:40:53.651Z,97807.09
2023-11-30T12:44:55.272Z,97813.06
2023-11-30T12:48:56.763Z,97809.78
2023-11-30T12:52:59.656Z,97806.06
2023-11-30T12:57:01.279Z,97803.38
2023-11-30T13:01:03.099Z,97801.88
2023-11-30T13:05:05.225Z,97797.38
2023-11-30T13:09:09.595Z,97794.97
2023-11-30T13:13:12.780Z,97789.44
2023-11-30T13:17:14.266Z,97787.25
2023-11-30T13:21:16.156Z,97782.88
2023-11-30T13:25:19.732Z,97789.38
2023-11-30T13:29:21.273Z,97786.25
2023-11-30T13:33:23.543Z,97777.19
2023-11-30T13:37:25.181Z,97761.88
2023-11-30T13:41:28.349Z,97760.22
2023-11-30T13:45:29.955Z,97766.97
2023-11-30T13:49:31.455Z,97751.91
2023-11-30T13:53:36.010Z,97752.59
2023-11-30T13:57:38.952Z,97752.06
2023-11-30T14:01:40.689Z,97757.00
2023-11-30T14:05:42.292Z,97754.28
2023-11-30T14:09:43.868Z,97759.84
2023-11-30T14:13:46.769Z,97759.81
2023-11-30T14:17:48.260Z,97748.31
2023-11-30T14:21:49.792Z,97748.78
2023-11-30T14:25:51.319Z,97745.66
2023-11-30T14:29:54.253Z,97749.50
2023-11-30T14:33:55.755Z,97760.31
2023-11-30T14:37:57.237Z,97762.53
2023-11-30T14:41:58.773Z,97759.84
2023-11-30T14:46:01.726Z,97766.47
2023-11-30T14:50:03.510Z,97763.19
2023-11-30T14:54:05.289Z,97776.84
2023-11-30T14:58:06.900Z,97760.31
2023-11-30T15:02:09.815Z,97758.81
2023-11-30T15:06:11.339Z,97758.03
2023-11-30T15:10:13.676Z,97769.91
2023-11-30T15:14:15.195Z,97771.16
2023-11-30T15:18:18.108Z,97772.81
2023-11-30T15:22:19.676Z,97781.50
2023-11-30T15:26:21.399Z,97780.66
2023-11-30T15:30:22.953Z,97775.69
2023-11-30T15:34:25.884Z,97774.88
2023-11-30T15:38:30.065Z,97764.56
2023-11-30T15:42:31.584Z,97773.25
2023-11-30T15:46:36.276Z,97779.44
2023-11-30T15:50:39.114Z,97778.81
2023-11-30T15:54:41.085Z,97777.69
2023-11-30T15:58:42.829Z,97788.56
2023-11-30T16:02:44.676Z,97777.00
2023-11-30T16:06:48.023Z,97778.03
2023-11-30T16:10:49.542Z,97778.03
2023-11-30T16:14:51.022Z,97774.69
2023-11-30T16:18:52.585Z,97779.41
2023-11-30T16:22:55.544Z,97783.38
2023-11-30T16:26:57.492Z,97778.59
2023-11-30T16:30:59.015Z,97773.44
2023-11-30T16:35:00.608Z,97782.97
2023-11-30T16:39:03.618Z,97782.97
2023-11-30T16:43:05.138Z,97788.78
2023-11-30T16:47:06.954Z,97780.47
2023-11-30T16:51:08.708Z,97780.69
2023-11-30T16:55:11.714Z,97778.03
2023-11-30T16:59:14.776Z,97762.31
2023-11-30T17:03:16.499Z,97767.28
2023-11-30T17:07:18.106Z,97771.94
2023-11-30T17:11:20.991Z,97770.13
2023-11-30T17:15:23.348Z,97759.81
2023-11-30T17:19:24.871Z,97763.28
2023-11-30T17:23:26.429Z,97769.88
2023-11-30T17:27:32.426Z,97765.97
2023-11-30T17:31:33.928Z,97767.88
2023-11-30T17:35:35.526Z,97770.56
2023-11-30T17:39:37.394Z,97761.91
2023-11-30T17:43:40.368Z,97752.13
2023-11-30T17:47:41.957Z,97769.06
2023-11-30T17:51:43.473Z,97755.63
2023-11-30T17:55:44.984Z,97753.41
2023-11-30T17:59:47.814Z,97751.53
2023-11-30T18:03:49.427Z,97752.81
2023-11-30T18:07:50.998Z,97761.47
2023-11-30T18:11:52.510Z,97768.91
2023-11-30T18:15:55.660Z,97766.84
2023-11-30T18:19:57.346Z,97772.66
2023-11-30T18:23:58.833Z,97774.50
2023-11-30T18:28:00.426Z,97776.38
2023-11-30T18:32:03.671Z,97778.03
2023-11-30T18:36:06.168Z,97769.97
2023-11-30T18:40:08.805Z,97765.44
2023-11-30T18:44:10.428Z,97769.78
2023-11-30T18:48:13.365Z,97756.56
2023-11-30T18:52:14.869Z,97748.72
2023-11-30T18:56:16.398Z,97737.56
2023-11-30T19:00:18.759Z,97735.28
2023-11-30T19:04:21.636Z,97740.47
2023-11-30T19:08:23.179Z,97737.78
2023-11-30T19:12:24.761Z,97726.25
2023-11-30T19:16:26.375Z,97728.31
2023-11-30T19:20:29.482Z,97726.44
2023-11-30T19:24:31.025Z,97731.81
2023-11-30T19:28:34.528Z,97726.84
2023-11-30T19:32:36.063Z,97733.88
2023-11-30T19:36:40.051Z,97735.94
2023-11-30T19:40:41.636Z,97728.94
2023-11-30T19:44:43.199Z,97733.47
2023-11-30T19:48:44.708Z,97724.34
2023-11-30T19:52:47.585Z,97732.84
2023-11-30T19:56:49.131Z,97729.94
2023-11-30T20:00:50.722Z,97721.88
2023-11-30T20:04:52.246Z,97716.75
2023-11-30T20:08:55.143Z,97715.69
2023-11-30T20:12:56.731Z,97716.09
2023-11-30T20:16:58.302Z,97714.06
2023-11-30T20:20:59.815Z,97718.63
2023-11-30T20:25:02.655Z,97733.09
2023-11-30T20:29:04.162Z,97735.59
2023-11-30T20:33:05.723Z,97739.94
2023-11-30T20:37:07.301Z,97751.09
2023-11-30T20:41:10.199Z,97745.28
2023-11-30T20:45:11.715Z,97741.75
2023-11-30T20:49:13.327Z,97752.66
2023-11-30T20:53:14.856Z,97754.34
2023-11-30T20:57:17.687Z,97743.16
2023-11-30T21:01:19.343Z,97751.22
2023-11-30T21:05:21.013Z,97748.97
2023-11-30T21:09:22.557Z,97742.97
2023-11-30T21:13:25.451Z,97751.66
2023-11-30T21:17:26.926Z,97742.16
2023-11-30T21:21:29.417Z,97742.97
2023-11-30T21:25:31.133Z,97746.31
2023-11-30T21:29:34.960Z,97744.22
2023-11-30T21:33:38.717Z,97743.41
2023-11-30T21:37:40.262Z,97750.38
2023-11-30T21:41:41.767Z,97755.13
2023-11-30T21:45:45.350Z,97752.47
2023-11-30T21:49:48.552Z,97755.34
2023-11-30T21:53:50.108Z,97755.78
2023-11-30T21:57:51.722Z,97753.34
2023-11-30T22:01:54.895Z,97758.13
2023-11-30T22:05:56.439Z,97749.25
2023-11-30T22:09:57.942Z,97755.03
2023-11-30T22:13:59.458Z,97770.31
2023-11-30T22:18:02.469Z,97776.91
2023-11-30T22:22:04.530Z,97771.47
2023-11-30T22:26:06.120Z,97770.88
2023-11-30T22:30:08.853Z,97769.47
2023-11-30T22:34:11.891Z,97769.91
2023-11-30T22:38:13.449Z,97774.03
2023-11-30T22:42:15.146Z,97780.66
2023-11-30T22:46:16.996Z,97787.22
2023-11-30T22:50:20.029Z,97786.38
2023-11-30T22:54:21.646Z,97787.56
2023-11-30T22:58:23.218Z,97784.28
2023-11-30T23:02:24.996Z,97784.94
2023-11-30T23:06:28.015Z,97783.09
2023-11-30T23:10:29.564Z,97783.69
2023-11-30T23:14:31.112Z,97789.66
2023-11-30T23:18:32.929Z,97797.31
2023-11-30T23:22:36.181Z,97790.72
2023-11-30T23:26:40.337Z,97780.59
2023-11-30T23:30:42.028Z,97792.19
2023-11-30T23:34:46.354Z,97791.31
2023-11-30T23:38:49.186Z,97797.44
2023-11-30T23:42:50.750Z,97791.69
2023-11-30T23:46:52.369Z,97798.50
2023-11-30T23:50:53.855Z,97792.91
2023-11-30T23:54:56.712Z,97781.56
2023-11-30T23:59:02.007Z,97783.44
